createdAt,value
2023-05-05T00:00:27.598Z,14.01
2023-05-05T00:01:27.576Z,14.00
2023-05-05T00:02:27.696Z,13.97
2023-05-05T00:03:27.635Z,13.96
2023-05-05T00:04:27.555Z,13.94
2023-05-05T00:05:27.534Z,13.91
2023-05-05T00:06:27.524Z,13.90
2023-05-05T00:07:27.539Z,13.85
2023-05-05T00:08:27.527Z,13.83
2023-05-05T00:09:27.496Z,13.85
2023-05-05T00:10:27.494Z,13.83
2023-05-05T00:11:27.478Z,13.83
2023-05-05T00:12:27.490Z,13.78
2023-05-05T00:13:27.455Z,13.78
2023-05-05T00:14:27.456Z,13.76
2023-05-05T00:15:27.462Z,13.78
2023-05-05T00:16:27.477Z,13.76
2023-05-05T00:17:27.488Z,13.72
2023-05-05T00:18:27.409Z,13.72
2023-05-05T00:19:27.386Z,13.71
2023-05-05T00:20:27.381Z,13.71
2023-05-05T00:21:27.389Z,13.65
2023-05-05T00:22:27.367Z,13.63
2023-05-05T00:23:27.348Z,13.67
2023-05-05T00:24:27.344Z,13.67
2023-05-05T00:25:27.328Z,13.67
2023-05-05T00:26:27.346Z,13.65
2023-05-05T00:27:27.312Z,13.64
2023-05-05T00:28:27.306Z,13.61
2023-05-05T00:29:27.290Z,13.58
2023-05-05T00:30:27.309Z,13.57
2023-05-05T00:31:27.315Z,13.54
2023-05-05T00:32:27.270Z,13.55
2023-05-05T00:33:27.260Z,13.53
2023-05-05T00:34:27.263Z,13.51
2023-05-05T00:35:27.252Z,13.49
2023-05-05T00:36:27.231Z,13.46
2023-05-05T00:37:27.283Z,13.43
2023-05-05T00:38:27.205Z,13.42
2023-05-05T00:39:27.212Z,13.40
2023-05-05T00:40:27.208Z,13.42
2023-05-05T00:41:27.185Z,13.38
2023-05-05T00:42:27.165Z,13.35
2023-05-05T00:43:27.161Z,13.32
2023-05-05T00:44:27.158Z,13.30
2023-05-05T00:45:27.153Z,13.27
2023-05-05T00:46:27.148Z,13.24
2023-05-05T00:47:27.137Z,13.26
2023-05-05T00:48:27.107Z,13.23
2023-05-05T00:49:27.135Z,13.23
2023-05-05T00:50:27.090Z,13.23
2023-05-05T00:51:27.068Z,13.20
2023-05-05T00:52:27.070Z,13.21
2023-05-05T00:53:27.052Z,13.20
2023-05-05T00:54:27.061Z,13.19
2023-05-05T00:55:27.038Z,13.16
2023-05-05T00:56:27.022Z,13.16
2023-05-05T00:57:27.013Z,13.13
2023-05-05T00:58:27.021Z,13.11
2023-05-05T00:59:27.006Z,13.11
2023-05-05T01:00:26.990Z,13.09
2023-05-05T01:01:27.004Z,13.11
2023-05-05T01:02:27.007Z,13.09
2023-05-05T01:03:27.116Z,13.13
2023-05-05T01:04:26.944Z,13.09
2023-05-05T01:05:26.930Z,13.09
2023-05-05T01:06:26.921Z,13.09
2023-05-05T01:07:26.912Z,13.06
2023-05-05T01:08:26.918Z,13.05
2023-05-05T01:09:26.887Z,13.05
2023-05-05T01:10:27.066Z,13.05
2023-05-05T01:11:26.869Z,13.04
2023-05-05T01:12:26.882Z,13.04
2023-05-05T01:13:26.874Z,13.01
2023-05-05T01:14:26.836Z,12.98
2023-05-05T01:15:26.818Z,12.95
2023-05-05T01:16:26.885Z,12.91
2023-05-05T01:17:26.842Z,12.90
2023-05-05T01:18:26.791Z,12.90
2023-05-05T01:19:26.792Z,12.91
2023-05-05T01:20:26.773Z,12.91
2023-05-05T01:21:26.766Z,12.90
2023-05-05T01:22:26.775Z,12.91
2023-05-05T01:23:26.750Z,12.90
2023-05-05T01:24:26.742Z,12.88
2023-05-05T01:25:26.729Z,12.87
2023-05-05T01:26:26.739Z,12.84
2023-05-05T01:27:26.711Z,12.83
2023-05-05T01:28:26.692Z,12.81
2023-05-05T01:29:26.674Z,12.83
2023-05-05T01:30:26.685Z,12.83
2023-05-05T01:31:26.688Z,12.81
2023-05-05T01:32:26.672Z,12.83
2023-05-05T01:33:26.629Z,12.81
2023-05-05T01:34:26.632Z,12.81
2023-05-05T01:35:26.619Z,12.80
2023-05-05T01:36:26.623Z,12.79
2023-05-05T01:37:26.609Z,12.77
2023-05-05T01:38:26.642Z,12.73
2023-05-05T01:39:26.579Z,12.71
2023-05-05T01:40:26.631Z,12.69
2023-05-05T01:41:26.573Z,12.69
2023-05-05T01:42:26.546Z,12.72
2023-05-05T01:43:26.533Z,12.73
2023-05-05T01:44:26.525Z,12.71
2023-05-05T01:45:26.554Z,12.69
2023-05-05T01:46:26.495Z,12.69
2023-05-05T01:47:26.497Z,12.66
2023-05-05T01:48:26.493Z,12.61
2023-05-05T01:49:26.469Z,12.62
2023-05-05T01:50:26.481Z,12.65
2023-05-05T01:51:26.449Z,12.63
2023-05-05T01:52:26.432Z,12.62
2023-05-05T01:53:26.429Z,12.61
2023-05-05T01:54:26.427Z,12.59
2023-05-05T01:55:26.432Z,12.61
2023-05-05T01:56:26.409Z,12.55
2023-05-05T01:57:26.392Z,12.53
2023-05-05T01:58:26.373Z,12.53
2023-05-05T01:59:26.384Z,12.53
2023-05-05T02:00:26.348Z,12.53
2023-05-05T02:01:26.435Z,12.53
2023-05-05T02:02:26.407Z,12.51
2023-05-05T02:03:26.359Z,12.53
2023-05-05T02:04:26.324Z,12.53
2023-05-05T02:05:26.303Z,12.48
2023-05-05T02:06:26.284Z,12.47
2023-05-05T02:07:26.309Z,12.47
2023-05-05T02:08:26.309Z,12.44
2023-05-05T02:09:26.272Z,12.44
2023-05-05T02:10:26.258Z,12.41
2023-05-05T02:11:26.236Z,12.38
2023-05-05T02:12:26.226Z,12.38
2023-05-05T02:13:26.329Z,12.36
2023-05-05T02:14:26.206Z,12.36
2023-05-05T02:15:26.197Z,12.36
2023-05-05T02:16:26.193Z,12.33
2023-05-05T02:17:26.263Z,12.35
2023-05-05T02:18:26.205Z,12.32
2023-05-05T02:19:26.176Z,12.30
2023-05-05T02:20:26.153Z,12.28
2023-05-05T02:21:26.144Z,12.28
2023-05-05T02:22:26.144Z,12.28
2023-05-05T02:23:26.164Z,12.29
2023-05-05T02:24:26.104Z,12.26
2023-05-05T02:25:26.092Z,12.29
2023-05-05T02:26:26.089Z,12.29
2023-05-05T02:27:26.101Z,12.29
2023-05-05T02:28:26.080Z,12.28
2023-05-05T02:29:26.061Z,12.25
2023-05-05T02:30:26.047Z,12.22
2023-05-05T02:31:26.088Z,12.21
2023-05-05T02:32:26.089Z,12.21
2023-05-05T02:33:26.019Z,12.21
2023-05-05T02:34:26.017Z,12.21
2023-05-05T02:35:26.005Z,12.17
2023-05-05T02:36:26.013Z,12.18
2023-05-05T02:37:26.021Z,12.18
2023-05-05T02:38:25.972Z,12.18
2023-05-05T02:39:25.980Z,12.17
2023-05-05T02:40:25.954Z,12.15
2023-05-05T02:41:25.980Z,12.14
2023-05-05T02:42:25.924Z,12.15
2023-05-05T02:43:25.949Z,12.14
2023-05-05T02:44:25.917Z,12.17
2023-05-05T02:45:25.910Z,12.18
2023-05-05T02:46:25.955Z,12.21
2023-05-05T02:47:25.911Z,12.22
2023-05-05T02:48:25.887Z,12.21
2023-05-05T02:49:25.868Z,12.22
2023-05-05T02:50:25.878Z,12.17
2023-05-05T02:51:25.851Z,12.15
2023-05-05T02:52:25.831Z,12.13
2023-05-05T02:53:25.842Z,12.13
2023-05-05T02:54:25.794Z,12.14
2023-05-05T02:55:25.811Z,12.17
2023-05-05T02:56:25.778Z,12.17
2023-05-05T02:57:25.776Z,12.14
2023-05-05T02:58:25.775Z,12.13
2023-05-05T02:59:25.789Z,12.08
2023-05-05T03:00:25.760Z,12.10
2023-05-05T03:01:25.808Z,12.15
2023-05-05T03:02:25.830Z,12.14
2023-05-05T03:03:25.782Z,12.17
2023-05-05T03:04:25.720Z,12.15
2023-05-05T03:05:25.706Z,12.14
2023-05-05T03:06:25.687Z,12.13
2023-05-05T03:07:25.694Z,12.10
2023-05-05T03:08:25.669Z,12.13
2023-05-05T03:09:25.684Z,12.13
2023-05-05T03:10:25.635Z,12.11
2023-05-05T03:11:25.623Z,12.10
2023-05-05T03:12:25.623Z,12.11
2023-05-05T03:13:25.626Z,12.15
2023-05-05T03:14:25.621Z,12.13
2023-05-05T03:15:25.608Z,12.15
2023-05-05T03:16:25.649Z,12.15
2023-05-05T03:17:25.602Z,12.18
2023-05-05T03:18:25.578Z,12.18
2023-05-05T03:19:25.551Z,12.25
2023-05-05T03:20:25.539Z,12.25
2023-05-05T03:21:25.535Z,12.25
2023-05-05T03:22:25.512Z,12.23
2023-05-05T03:23:25.522Z,12.21
2023-05-05T03:24:25.515Z,12.21
2023-05-05T03:25:25.507Z,12.18
2023-05-05T03:26:25.469Z,12.18
2023-05-05T03:27:25.500Z,12.17
2023-05-05T03:28:25.464Z,12.17
2023-05-05T03:29:25.451Z,12.14
2023-05-05T03:30:25.435Z,12.15
2023-05-05T03:31:25.444Z,12.18
2023-05-05T03:32:25.452Z,12.17
2023-05-05T03:33:25.406Z,12.18
2023-05-05T03:34:25.394Z,12.21
2023-05-05T03:35:25.381Z,12.21
2023-05-05T03:36:27.835Z,12.18
2023-05-05T03:37:25.386Z,12.17
2023-05-05T03:38:25.357Z,12.14
2023-05-05T03:39:25.336Z,12.11
2023-05-05T03:40:36.383Z,12.11
2023-05-05T03:41:26.367Z,12.10
2023-05-05T03:42:25.346Z,12.08
2023-05-05T03:43:25.304Z,12.07
2023-05-05T03:44:25.288Z,12.04
2023-05-05T03:45:25.283Z,12.04
2023-05-05T03:46:25.308Z,12.03
2023-05-05T03:47:25.309Z,12.00
2023-05-05T03:48:25.246Z,11.97
2023-05-05T03:49:25.260Z,11.97
2023-05-05T03:50:25.231Z,11.96
2023-05-05T03:51:25.238Z,11.91
2023-05-05T03:52:25.200Z,11.91
2023-05-05T03:53:25.161Z,11.95
2023-05-05T03:54:25.143Z,12.00
2023-05-05T03:55:25.192Z,12.00
2023-05-05T03:56:25.167Z,11.99
2023-05-05T03:57:25.168Z,12.00
2023-05-05T03:58:25.164Z,11.96
2023-05-05T03:59:25.142Z,11.95
2023-05-05T04:00:25.140Z,11.91
2023-05-05T04:01:25.123Z,11.89
2023-05-05T04:02:25.194Z,11.88
2023-05-05T04:03:25.285Z,11.84
2023-05-05T04:04:25.089Z,11.84
2023-05-05T04:05:25.072Z,11.80
2023-05-05T04:06:25.072Z,11.82
2023-05-05T04:07:25.064Z,11.82
2023-05-05T04:08:25.056Z,11.79
2023-05-05T04:09:25.061Z,11.77
2023-05-05T04:10:25.001Z,11.76
2023-05-05T04:11:24.975Z,11.73
2023-05-05T04:12:24.958Z,11.73
2023-05-05T04:13:25.012Z,11.76
2023-05-05T04:14:25.008Z,11.79
2023-05-05T04:15:25.032Z,11.85
2023-05-05T04:16:25.069Z,11.85
2023-05-05T04:17:24.947Z,11.85
2023-05-05T04:18:24.890Z,11.85
2023-05-05T04:19:24.910Z,11.84
2023-05-05T04:20:24.886Z,11.79
2023-05-05T04:21:24.881Z,11.76
2023-05-05T04:22:24.863Z,11.74
2023-05-05T04:23:25.820Z,11.71
2023-05-05T04:24:24.937Z,11.70
2023-05-05T04:25:24.829Z,11.71
2023-05-05T04:26:24.812Z,11.74
2023-05-05T04:27:24.819Z,11.73
2023-05-05T04:28:24.858Z,11.70
2023-05-05T04:29:24.792Z,11.70
2023-05-05T04:30:24.792Z,11.70
2023-05-05T04:31:24.811Z,11.67
2023-05-05T04:32:24.772Z,11.66
2023-05-05T04:33:24.761Z,11.66
2023-05-05T04:34:24.740Z,11.67
2023-05-05T04:35:24.725Z,11.71
2023-05-05T04:36:24.714Z,11.74
2023-05-05T04:37:24.989Z,11.76
2023-05-05T04:38:24.747Z,11.74
2023-05-05T04:39:24.687Z,11.73
2023-05-05T04:40:24.689Z,11.73
2023-05-05T04:41:24.670Z,11.77
2023-05-05T04:42:24.685Z,11.84
2023-05-05T04:43:24.646Z,11.85
2023-05-05T04:44:24.626Z,11.88
2023-05-05T04:45:24.633Z,11.88
2023-05-05T04:46:24.646Z,11.87
2023-05-05T04:47:24.627Z,11.88
2023-05-05T04:48:24.599Z,11.87
2023-05-05T04:49:24.582Z,11.87
2023-05-05T04:50:24.580Z,11.87
2023-05-05T04:51:24.592Z,11.87
2023-05-05T04:52:24.610Z,11.89
2023-05-05T04:53:24.544Z,11.95
2023-05-05T04:54:24.532Z,11.99
2023-05-05T04:55:24.520Z,11.99
2023-05-05T04:56:24.537Z,12.04
2023-05-05T04:57:24.506Z,12.08
2023-05-05T04:58:24.489Z,12.08
2023-05-05T04:59:24.480Z,12.10
2023-05-05T05:00:24.483Z,12.11
2023-05-05T05:01:24.505Z,12.11
2023-05-05T05:02:24.545Z,12.11
2023-05-05T05:03:24.514Z,12.08
2023-05-05T05:04:24.427Z,12.10
2023-05-05T05:05:24.441Z,12.10
2023-05-05T05:06:24.425Z,12.08
2023-05-05T05:07:24.403Z,12.11
2023-05-05T05:08:24.388Z,12.14
2023-05-05T05:09:24.389Z,12.14
2023-05-05T05:10:24.410Z,12.17
2023-05-05T05:11:24.364Z,12.17
2023-05-05T05:12:24.346Z,12.17
2023-05-05T05:13:24.518Z,12.21
2023-05-05T05:14:24.348Z,12.22
2023-05-05T05:15:24.348Z,12.25
2023-05-05T05:16:24.372Z,12.25
2023-05-05T05:17:24.314Z,12.28
2023-05-05T05:18:24.286Z,12.25
2023-05-05T05:19:24.297Z,12.28
2023-05-05T05:20:24.299Z,12.26
2023-05-05T05:21:24.259Z,12.26
2023-05-05T05:22:24.249Z,12.30
2023-05-05T05:23:24.240Z,12.33
2023-05-05T05:24:24.247Z,12.35
2023-05-05T05:25:24.219Z,12.38
2023-05-05T05:26:24.210Z,12.40
2023-05-05T05:27:24.195Z,12.41
2023-05-05T05:28:24.181Z,12.44
2023-05-05T05:29:24.207Z,12.44
2023-05-05T05:30:24.155Z,12.47
2023-05-05T05:31:24.171Z,12.47
2023-05-05T05:32:24.146Z,12.53
2023-05-05T05:33:24.154Z,12.58
2023-05-05T05:34:24.136Z,12.61
2023-05-05T05:35:24.115Z,12.62
2023-05-05T05:36:24.109Z,12.65
2023-05-05T05:37:24.108Z,12.66
2023-05-05T05:38:24.131Z,12.69
2023-05-05T05:39:24.075Z,12.71
2023-05-05T05:40:24.061Z,12.72
2023-05-05T05:41:24.056Z,12.73
2023-05-05T05:42:24.033Z,12.76
2023-05-05T05:43:24.252Z,12.77
2023-05-05T05:44:24.029Z,12.79
2023-05-05T05:45:24.012Z,12.81
2023-05-05T05:46:24.078Z,12.81
2023-05-05T05:47:24.023Z,12.84
2023-05-05T05:48:23.986Z,12.86
2023-05-05T05:49:23.967Z,12.87
2023-05-05T05:50:23.962Z,12.88
2023-05-05T05:51:23.946Z,12.91
2023-05-05T05:52:23.957Z,12.93
2023-05-05T05:53:23.943Z,12.95
2023-05-05T05:54:23.924Z,12.95
2023-05-05T05:55:23.910Z,12.95
2023-05-05T05:56:23.893Z,12.96
2023-05-05T05:57:23.899Z,12.95
2023-05-05T05:58:23.873Z,12.96
2023-05-05T05:59:23.863Z,12.95
2023-05-05T06:00:23.847Z,12.96
2023-05-05T06:01:23.865Z,12.96
2023-05-05T06:02:23.855Z,12.96
2023-05-05T06:03:24.179Z,12.99
2023-05-05T06:04:23.859Z,13.01
2023-05-05T06:05:23.793Z,13.02
2023-05-05T06:06:23.816Z,13.04
2023-05-05T06:07:23.775Z,13.04
2023-05-05T06:08:25.076Z,13.05
2023-05-05T06:09:23.764Z,13.08
2023-05-05T06:10:27.912Z,13.11
2023-05-05T06:11:23.756Z,13.16
2023-05-05T06:12:23.727Z,13.16
2023-05-05T06:13:23.723Z,13.19
2023-05-05T06:14:23.715Z,13.20
2023-05-05T06:15:23.704Z,13.21
2023-05-05T06:16:23.729Z,13.27
2023-05-05T06:17:23.668Z,13.29
2023-05-05T06:18:23.717Z,13.35
2023-05-05T06:19:23.650Z,13.38
2023-05-05T06:20:23.668Z,13.40
2023-05-05T06:21:23.643Z,13.42
2023-05-05T06:22:23.626Z,13.45
2023-05-05T06:23:23.608Z,13.46
2023-05-05T06:24:23.594Z,13.49
2023-05-05T06:25:23.600Z,13.53
2023-05-05T06:26:23.586Z,13.57
2023-05-05T06:27:23.578Z,13.58
2023-05-05T06:28:23.561Z,13.63
2023-05-05T06:29:23.580Z,13.65
2023-05-05T06:30:23.568Z,13.68
2023-05-05T06:31:23.565Z,13.73
2023-05-05T06:32:23.534Z,13.79
2023-05-05T06:33:23.515Z,13.82
2023-05-05T06:34:23.517Z,13.83
2023-05-05T06:35:23.483Z,13.91
2023-05-05T06:36:23.568Z,13.96
2023-05-05T06:37:23.459Z,14.00
2023-05-05T06:38:23.460Z,14.00
2023-05-05T06:39:23.478Z,14.03
2023-05-05T06:40:23.442Z,14.05
2023-05-05T06:41:23.439Z,14.12
2023-05-05T06:42:23.428Z,14.15
2023-05-05T06:43:23.516Z,14.19
2023-05-05T06:44:23.420Z,14.23
2023-05-05T06:45:23.388Z,14.28
2023-05-05T06:46:23.404Z,14.31
2023-05-05T06:47:23.402Z,14.36
2023-05-05T06:48:23.372Z,14.40
2023-05-05T06:49:23.339Z,14.44
2023-05-05T06:50:23.330Z,14.48
2023-05-05T06:51:23.327Z,14.52
2023-05-05T06:52:23.408Z,14.53
2023-05-05T06:53:23.330Z,14.58
2023-05-05T06:54:23.302Z,14.61
2023-05-05T06:55:23.292Z,14.66
2023-05-05T06:56:23.283Z,14.69
2023-05-05T06:57:23.283Z,14.71
2023-05-05T06:58:23.273Z,14.77
2023-05-05T06:59:23.238Z,14.79
2023-05-05T07:00:23.233Z,14.83
2023-05-05T07:01:23.366Z,14.89
2023-05-05T07:02:25.272Z,14.92
2023-05-05T07:03:23.267Z,14.97
2023-05-05T07:04:23.199Z,14.99
2023-05-05T07:05:23.184Z,15.04
2023-05-05T07:06:23.175Z,15.08
2023-05-05T07:07:23.195Z,15.14
2023-05-05T07:08:23.156Z,15.19
2023-05-05T07:09:23.153Z,15.22
2023-05-05T07:10:23.127Z,15.26
2023-05-05T07:11:23.145Z,15.27
2023-05-05T07:12:23.174Z,15.33
2023-05-05T07:13:23.101Z,15.36
2023-05-05T07:14:24.493Z,15.41
2023-05-05T07:15:28.204Z,15.44
2023-05-05T07:16:24.167Z,15.50
2023-05-05T07:17:23.127Z,15.52
2023-05-05T07:18:23.064Z,15.58
2023-05-05T07:19:23.040Z,15.63
2023-05-05T07:20:23.037Z,15.66
2023-05-05T07:21:23.082Z,15.70
2023-05-05T07:22:23.019Z,15.77
2023-05-05T07:23:22.995Z,15.81
2023-05-05T07:24:23.007Z,15.83
2023-05-05T07:25:23.004Z,15.87
2023-05-05T07:26:23.019Z,15.93
2023-05-05T07:27:22.961Z,15.96
2023-05-05T07:28:22.950Z,16.00
2023-05-05T07:29:22.937Z,15.99
2023-05-05T07:30:23.280Z,16.03
2023-05-05T07:31:22.970Z,16.05
2023-05-05T07:32:22.986Z,16.06
2023-05-05T07:33:22.897Z,16.06
2023-05-05T07:34:22.884Z,16.08
2023-05-05T07:35:22.898Z,16.10
2023-05-05T07:36:22.867Z,16.14
2023-05-05T07:37:22.867Z,16.17
2023-05-05T07:38:22.856Z,16.22
2023-05-05T07:39:22.855Z,16.28
2023-05-05T07:40:22.842Z,16.32
2023-05-05T07:41:22.814Z,16.36
2023-05-05T07:42:22.803Z,16.37
2023-05-05T07:43:22.794Z,16.39
2023-05-05T07:44:22.818Z,16.39
2023-05-05T07:45:22.781Z,16.40
2023-05-05T07:46:22.792Z,16.40
2023-05-05T07:47:22.789Z,16.42
2023-05-05T07:48:22.743Z,16.42
2023-05-05T07:49:22.742Z,16.43
2023-05-05T07:50:22.730Z,16.46
2023-05-05T07:51:22.703Z,16.47
2023-05-05T07:52:33.143Z,16.47
2023-05-05T07:53:23.704Z,16.54
2023-05-05T07:54:22.711Z,16.59
2023-05-05T07:55:22.692Z,16.65
2023-05-05T07:56:22.670Z,16.70
2023-05-05T07:57:22.654Z,16.76
2023-05-05T07:58:22.659Z,16.82
2023-05-05T07:59:22.646Z,16.83
2023-05-05T08:00:22.643Z,16.87
2023-05-05T08:01:22.609Z,16.90
2023-05-05T08:02:22.672Z,16.91
2023-05-05T08:03:22.803Z,16.92
2023-05-05T08:04:22.583Z,16.94
2023-05-05T08:05:22.568Z,16.97
2023-05-05T08:06:22.560Z,16.98
2023-05-05T08:07:22.565Z,16.95
2023-05-05T08:08:22.567Z,16.95
2023-05-05T08:09:22.538Z,16.97
2023-05-05T08:10:22.526Z,16.95
2023-05-05T08:11:22.501Z,16.95
2023-05-05T08:12:22.525Z,16.95
2023-05-05T08:13:22.493Z,16.97
2023-05-05T08:14:22.477Z,16.95
2023-05-05T08:15:22.466Z,16.94
2023-05-05T08:16:22.491Z,16.94
2023-05-05T08:17:22.458Z,16.94
2023-05-05T08:18:22.435Z,16.91
2023-05-05T08:19:28.610Z,16.90
2023-05-05T08:20:23.430Z,16.88
2023-05-05T08:21:22.431Z,16.84
2023-05-05T08:22:22.414Z,16.83
2023-05-05T08:23:22.390Z,16.83
2023-05-05T08:24:22.391Z,16.82
2023-05-05T08:25:22.366Z,16.83
2023-05-05T08:26:22.375Z,16.87
2023-05-05T08:27:22.338Z,16.84
2023-05-05T08:28:22.334Z,16.83
2023-05-05T08:29:22.325Z,16.82
2023-05-05T08:30:22.304Z,16.82
2023-05-05T08:31:22.357Z,16.80
2023-05-05T08:32:22.284Z,16.80
2023-05-05T08:33:22.270Z,16.80
2023-05-05T08:34:22.273Z,16.80
2023-05-05T08:35:22.282Z,16.80
2023-05-05T08:36:22.264Z,16.80
2023-05-05T08:37:22.228Z,16.82
2023-05-05T08:38:22.233Z,16.80
2023-05-05T08:39:22.214Z,16.80
2023-05-05T08:40:22.228Z,16.79
2023-05-05T08:41:22.190Z,16.79
2023-05-05T08:42:35.585Z,16.77
2023-05-05T08:43:23.160Z,16.77
2023-05-05T08:44:22.161Z,16.77
2023-05-05T08:45:22.169Z,16.80
2023-05-05T08:46:22.145Z,16.80
2023-05-05T08:47:22.142Z,16.80
2023-05-05T08:48:22.117Z,16.82
2023-05-05T08:49:22.121Z,16.83
2023-05-05T08:50:22.168Z,16.84
2023-05-05T08:51:22.112Z,16.87
2023-05-05T08:52:22.099Z,16.88
2023-05-05T08:53:22.071Z,16.90
2023-05-05T08:54:22.071Z,16.94
2023-05-05T08:55:22.047Z,16.97
2023-05-05T08:56:22.032Z,17.04
2023-05-05T08:57:22.017Z,17.04
2023-05-05T08:58:22.013Z,17.09
2023-05-05T08:59:22.014Z,17.10
2023-05-05T09:00:22.075Z,17.10
2023-05-05T09:01:22.000Z,17.13
2023-05-05T09:02:22.046Z,17.12
2023-05-05T09:03:22.018Z,17.10
2023-05-05T09:04:21.970Z,17.13
2023-05-05T09:05:21.939Z,17.13
2023-05-05T09:06:21.937Z,17.13
2023-05-05T09:07:21.917Z,17.14
2023-05-05T09:08:21.939Z,17.16
2023-05-05T09:09:21.893Z,17.16
2023-05-05T09:10:21.927Z,17.19
2023-05-05T09:11:21.871Z,17.20
2023-05-05T09:12:21.870Z,17.24
2023-05-05T09:13:21.902Z,17.24
2023-05-05T09:14:21.844Z,17.25
2023-05-05T09:15:21.836Z,17.28
2023-05-05T09:16:21.876Z,17.30
2023-05-05T09:17:21.823Z,17.31
2023-05-05T09:18:21.818Z,17.31
2023-05-05T09:19:21.794Z,17.34
2023-05-05T09:20:21.808Z,17.34
2023-05-05T09:21:21.774Z,17.35
2023-05-05T09:22:21.781Z,17.39
2023-05-05T09:23:21.760Z,17.41
2023-05-05T09:24:21.747Z,17.43
2023-05-05T09:25:21.732Z,17.50
2023-05-05T09:26:21.722Z,17.50
2023-05-05T09:27:21.722Z,17.52
2023-05-05T09:28:21.713Z,17.53
2023-05-05T09:29:21.680Z,17.54
2023-05-05T09:30:21.677Z,17.56
2023-05-05T09:31:21.727Z,17.62
2023-05-05T09:32:21.696Z,17.68
2023-05-05T09:33:21.649Z,17.75
2023-05-05T09:34:21.642Z,17.83
2023-05-05T09:35:21.635Z,17.84
2023-05-05T09:36:21.630Z,17.86
2023-05-05T09:37:21.615Z,17.96
2023-05-05T09:38:21.595Z,18.08
2023-05-05T09:39:21.595Z,18.27
2023-05-05T09:40:21.672Z,18.48
2023-05-05T09:41:21.584Z,18.67
2023-05-05T09:42:21.550Z,18.91
2023-05-05T09:43:21.553Z,19.15
2023-05-05T09:44:21.542Z,19.35
2023-05-05T09:45:21.541Z,19.56
2023-05-05T09:46:21.577Z,19.77
2023-05-05T09:47:29.282Z,19.99
2023-05-05T09:48:22.546Z,20.18
2023-05-05T09:49:21.493Z,20.42
2023-05-05T09:50:21.500Z,20.68
2023-05-05T09:51:21.489Z,20.86
2023-05-05T09:52:21.470Z,20.97
2023-05-05T09:53:21.448Z,21.05
2023-05-05T09:54:21.455Z,21.04
2023-05-05T09:55:21.429Z,21.11
2023-05-05T09:56:21.412Z,21.26
2023-05-05T09:57:21.399Z,21.43
2023-05-05T09:58:21.445Z,21.62
2023-05-05T09:59:21.415Z,21.80
2023-05-05T10:00:21.415Z,21.88
2023-05-05T10:01:21.404Z,21.93
2023-05-05T10:02:21.354Z,22.06
2023-05-05T10:03:21.350Z,22.13
2023-05-05T10:04:21.370Z,22.22
2023-05-05T10:05:21.349Z,22.41
2023-05-05T10:06:21.319Z,22.52
2023-05-05T10:07:21.305Z,22.71
2023-05-05T10:08:21.281Z,22.89
2023-05-05T10:09:21.292Z,23.07
2023-05-05T10:10:21.280Z,23.25
2023-05-05T10:11:21.252Z,23.39
2023-05-05T10:12:21.246Z,23.52
2023-05-05T10:13:21.249Z,23.63
2023-05-05T10:14:21.241Z,23.76
2023-05-05T10:15:21.242Z,23.89
2023-05-05T10:16:21.263Z,24.00
2023-05-05T10:17:21.191Z,24.15
2023-05-05T10:18:21.265Z,24.28
2023-05-05T10:19:21.172Z,24.40
2023-05-05T10:20:21.180Z,24.48
2023-05-05T10:21:21.156Z,24.48
2023-05-05T10:22:21.146Z,24.63
2023-05-05T10:23:21.150Z,24.74
2023-05-05T10:24:21.126Z,24.84
2023-05-05T10:25:21.118Z,24.94
2023-05-05T10:26:21.109Z,25.00
2023-05-05T10:27:21.122Z,25.03
2023-05-05T10:28:21.093Z,25.01
2023-05-05T10:29:21.078Z,25.00
2023-05-05T10:30:21.065Z,25.01
2023-05-05T10:31:26.370Z,25.01
2023-05-05T10:34:21.063Z,24.93
2023-05-05T10:35:21.017Z,24.86
2023-05-05T10:36:21.011Z,24.85
2023-05-05T10:37:21.013Z,24.93
2023-05-05T10:38:20.980Z,24.93
2023-05-05T10:39:20.984Z,25.09
2023-05-05T10:40:20.976Z,25.26
2023-05-05T10:41:20.977Z,25.37
2023-05-05T10:42:20.967Z,25.37
2023-05-05T10:43:20.970Z,25.37
2023-05-05T10:44:20.926Z,25.40
2023-05-05T10:45:21.041Z,25.36
2023-05-05T10:46:20.969Z,25.40
2023-05-05T10:47:20.899Z,25.41
2023-05-05T10:48:20.897Z,25.40
2023-05-05T10:49:20.888Z,25.28
2023-05-05T10:50:20.865Z,25.06
2023-05-05T10:51:31.102Z,24.78
2023-05-05T10:52:21.856Z,24.62
2023-05-05T10:53:20.844Z,24.65
2023-05-05T10:54:20.864Z,24.63
2023-05-05T10:55:20.836Z,24.68
2023-05-05T10:56:20.819Z,24.71
2023-05-05T10:57:20.805Z,24.65
2023-05-05T10:58:20.779Z,24.56
2023-05-05T10:59:20.781Z,24.45
2023-05-05T11:00:20.784Z,24.41
2023-05-05T11:01:20.788Z,24.40
2023-05-05T11:02:20.761Z,24.36
2023-05-05T11:03:20.807Z,24.31
2023-05-05T11:04:20.731Z,24.25
2023-05-05T11:05:20.744Z,24.22
2023-05-05T11:06:20.699Z,24.16
2023-05-05T11:07:20.749Z,24.22
2023-05-05T11:08:20.689Z,24.21
2023-05-05T11:09:20.698Z,24.22
2023-05-05T11:10:21.078Z,24.26
2023-05-05T11:11:20.661Z,24.29
2023-05-05T11:12:20.645Z,24.31
2023-05-05T11:13:20.680Z,24.31
2023-05-05T11:14:20.754Z,24.31
2023-05-05T11:15:20.618Z,24.34
2023-05-05T11:16:20.618Z,24.33
2023-05-05T11:17:20.589Z,24.28
2023-05-05T11:18:20.576Z,24.22
2023-05-05T11:19:20.589Z,24.11
2023-05-05T11:20:20.558Z,24.04
2023-05-05T11:21:20.594Z,24.07
2023-05-05T11:22:20.547Z,24.13
2023-05-05T11:23:20.573Z,24.16
2023-05-05T11:24:20.542Z,24.15
2023-05-05T11:25:20.522Z,24.08
2023-05-05T11:26:20.510Z,24.03
2023-05-05T11:27:20.497Z,23.96
2023-05-05T11:28:20.504Z,23.88
2023-05-05T11:29:20.470Z,23.84
2023-05-05T11:30:20.510Z,23.82
2023-05-05T11:31:20.505Z,23.79
2023-05-05T11:32:20.437Z,23.76
2023-05-05T11:33:20.461Z,23.67
2023-05-05T11:34:20.443Z,23.60
2023-05-05T11:35:20.425Z,23.49
2023-05-05T11:36:20.402Z,23.41
2023-05-05T11:37:20.409Z,23.34
2023-05-05T11:38:20.396Z,23.28
2023-05-05T11:39:20.391Z,23.22
2023-05-05T11:40:20.365Z,23.17
2023-05-05T11:41:20.361Z,23.13
2023-05-05T11:42:20.360Z,23.10
2023-05-05T11:43:20.350Z,22.98
2023-05-05T11:44:20.323Z,22.92
2023-05-05T11:45:20.320Z,22.85
2023-05-05T11:46:20.320Z,22.83
2023-05-05T11:47:20.314Z,22.80
2023-05-05T11:48:20.283Z,22.76
2023-05-05T11:49:20.275Z,22.71
2023-05-05T11:50:21.028Z,22.66
2023-05-05T11:51:20.293Z,22.62
2023-05-05T11:52:20.266Z,22.59
2023-05-05T11:53:20.256Z,22.56
2023-05-05T11:54:20.219Z,22.52
2023-05-05T11:55:20.208Z,22.49
2023-05-05T11:56:20.221Z,22.41
2023-05-05T11:57:20.201Z,22.37
2023-05-05T11:58:20.191Z,22.31
2023-05-05T11:59:20.176Z,22.27
2023-05-05T12:00:20.179Z,22.22
2023-05-05T12:01:20.185Z,22.15
2023-05-05T12:02:20.212Z,22.11
2023-05-05T12:03:20.258Z,22.03
2023-05-05T12:04:20.169Z,21.94
2023-05-05T12:05:20.142Z,21.90
2023-05-05T12:06:20.127Z,21.85
2023-05-05T12:07:20.138Z,21.82
2023-05-05T12:08:20.069Z,21.75
2023-05-05T12:09:20.087Z,21.74
2023-05-05T12:10:20.074Z,21.66
2023-05-05T12:11:20.074Z,21.62
2023-05-05T12:12:20.041Z,21.53
2023-05-05T12:13:20.380Z,21.41
2023-05-05T12:14:20.021Z,21.23
2023-05-05T12:15:20.043Z,21.14
2023-05-05T12:16:20.051Z,21.08
2023-05-05T12:17:19.983Z,21.03
2023-05-05T12:18:19.975Z,20.95
2023-05-05T12:19:20.035Z,20.85
2023-05-05T12:20:19.979Z,20.77
2023-05-05T12:21:19.949Z,20.65
2023-05-05T12:22:19.936Z,20.52
2023-05-05T12:23:19.927Z,20.46
2023-05-05T12:24:20.242Z,20.39
2023-05-05T12:25:19.909Z,20.27
2023-05-05T12:26:19.892Z,20.19
2023-05-05T12:27:19.891Z,20.18
2023-05-05T12:28:19.875Z,20.14
2023-05-05T12:29:19.880Z,20.14
2023-05-05T12:30:19.935Z,20.15
2023-05-05T12:31:19.853Z,20.15
2023-05-05T12:32:19.831Z,20.15
2023-05-05T12:33:19.843Z,20.12
2023-05-05T12:34:19.827Z,20.14
2023-05-05T12:35:19.808Z,20.12
2023-05-05T12:36:19.798Z,20.12
2023-05-05T12:37:19.784Z,20.09
2023-05-05T12:38:19.790Z,20.08
2023-05-05T12:39:19.778Z,20.08
2023-05-05T12:40:19.748Z,20.05
2023-05-05T12:41:19.746Z,20.04
2023-05-05T12:42:19.747Z,19.99
2023-05-05T12:43:19.740Z,19.99
2023-05-05T12:44:19.709Z,19.94
2023-05-05T12:45:19.699Z,19.93
2023-05-05T12:46:19.700Z,19.90
2023-05-05T12:47:19.718Z,19.89
2023-05-05T12:48:19.678Z,19.87
2023-05-05T12:49:19.670Z,19.84
2023-05-05T12:50:19.653Z,19.81
2023-05-05T12:51:19.655Z,19.79
2023-05-05T12:52:19.660Z,19.75
2023-05-05T12:53:19.620Z,19.71
2023-05-05T12:54:19.616Z,19.70